createdAt,value
2023-02-26T00:00:25.667Z,0.00
2023-02-26T00:05:25.625Z,0.00
2023-02-26T00:10:25.566Z,0.00
2023-02-26T00:15:25.468Z,0.00
2023-02-26T00:20:25.445Z,0.00
2023-02-26T00:25:25.377Z,0.00
2023-02-26T00:30:25.330Z,0.00
2023-02-26T00:35:25.243Z,0.00
2023-02-26T00:40:25.174Z,0.00
2023-02-26T00:45:25.098Z,0.00
2023-02-26T00:50:25.091Z,0.00
2023-02-26T00:55:24.979Z,0.00
2023-02-26T01:00:24.921Z,0.00
2023-02-26T01:05:43.654Z,0.00
2023-02-26T01:10:36.086Z,0.00
2023-02-26T01:15:36.155Z,0.00
2023-02-26T01:20:35.929Z,0.00
2023-02-26T01:25:35.890Z,0.00
2023-02-26T01:30:35.810Z,0.00
2023-02-26T01:35:35.736Z,0.00
2023-02-26T01:40:35.671Z,0.00
2023-02-26T01:45:35.619Z,0.00
2023-02-26T01:50:35.562Z,0.00
2023-02-26T01:55:35.507Z,0.00
2023-02-26T02:00:35.467Z,0.00
2023-02-26T02:05:35.394Z,0.00
2023-02-26T02:10:35.418Z,0.00
2023-02-26T02:15:35.249Z,0.00
2023-02-26T02:20:35.152Z,0.00
2023-02-26T02:25:35.116Z,0.00
2023-02-26T02:30:35.026Z,0.00
2023-02-26T02:35:34.984Z,0.00
2023-02-26T02:40:34.907Z,0.00
2023-02-26T02:45:34.864Z,0.00
2023-02-26T02:50:34.776Z,0.00
2023-02-26T02:55:34.764Z,0.00
2023-02-26T03:00:34.656Z,0.00
2023-02-26T03:05:34.607Z,0.00
2023-02-26T03:10:34.549Z,0.00
2023-02-26T03:15:34.463Z,0.00
2023-02-26T03:20:34.385Z,0.00
2023-02-26T03:25:34.341Z,0.00
2023-02-26T03:30:34.292Z,0.00
2023-02-26T03:35:34.246Z,0.00
2023-02-26T03:40:34.162Z,0.00
2023-02-26T03:45:34.083Z,0.00
2023-02-26T03:50:34.023Z,0.00
2023-02-26T03:55:33.964Z,0.00
2023-02-26T04:00:54.865Z,0.00
2023-02-26T04:05:33.826Z,0.00
2023-02-26T04:10:33.772Z,0.00
2023-02-26T04:15:33.766Z,0.00
2023-02-26T04:20:33.691Z,0.00
2023-02-26T04:25:33.593Z,0.00
2023-02-26T04:30:33.542Z,0.00
2023-02-26T04:35:33.421Z,0.00
2023-02-26T04:40:33.391Z,0.00
2023-02-26T04:45:33.316Z,0.00
2023-02-26T04:50:33.276Z,0.00
2023-02-26T04:55:33.217Z,0.00
2023-02-26T05:00:33.145Z,0.00
2023-02-26T05:05:33.064Z,0.00
2023-02-26T05:10:33.037Z,0.00
2023-02-26T05:15:32.939Z,0.00
2023-02-26T05:20:32.904Z,0.00
2023-02-26T05:25:32.829Z,0.00
2023-02-26T05:30:32.835Z,0.00
2023-02-26T05:35:32.671Z,0.00
2023-02-26T05:40:32.644Z,0.00
2023-02-26T05:45:32.553Z,0.00
2023-02-26T05:50:32.518Z,0.00
2023-02-26T05:55:32.442Z,4.00
2023-02-26T06:00:32.397Z,8.00
2023-02-26T06:05:32.308Z,12.00
2023-02-26T06:10:32.254Z,32.00
2023-02-26T06:15:32.187Z,56.00
2023-02-26T06:20:32.129Z,84.00
2023-02-26T06:25:32.066Z,112.00
2023-02-26T06:30:32.098Z,164.00
2023-02-26T06:35:31.927Z,316.00
2023-02-26T06:40:31.893Z,396.00
2023-02-26T06:45:31.924Z,444.00
2023-02-26T06:50:31.756Z,500.00
2023-02-26T06:55:31.679Z,584.00
2023-02-26T07:00:46.044Z,724.00
2023-02-26T07:05:38.419Z,876.00
2023-02-26T07:10:38.334Z,1096.00
2023-02-26T07:15:38.334Z,1400.00
2023-02-26T07:20:38.208Z,1784.00
2023-02-26T07:25:38.155Z,3036.00
2023-02-26T07:30:38.140Z,3320.00
2023-02-26T07:35:38.012Z,3128.00
2023-02-26T07:40:37.943Z,4652.00
2023-02-26T07:45:37.897Z,6160.00
2023-02-26T07:50:37.830Z,7440.00
2023-02-26T07:55:37.761Z,9548.00
2023-02-26T08:00:37.661Z,2436.00
2023-02-26T08:05:37.943Z,15520.00
2023-02-26T08:10:37.551Z,17664.00
2023-02-26T08:15:37.551Z,14848.00
2023-02-26T08:20:37.423Z,13056.00
2023-02-26T08:25:37.339Z,10528.00
2023-02-26T08:30:37.307Z,9408.00
2023-02-26T08:35:37.219Z,8884.00
2023-02-26T08:40:37.148Z,8936.00
2023-02-26T08:45:37.112Z,9040.00
2023-02-26T08:50:37.013Z,9776.00
2023-02-26T08:55:36.957Z,9880.00
2023-02-26T09:00:36.899Z,13120.00
2023-02-26T09:05:36.796Z,7252.00
2023-02-26T09:10:36.826Z,14112.00
2023-02-26T09:15:36.705Z,12084.00
2023-02-26T09:20:36.612Z,10384.00
2023-02-26T09:25:36.658Z,4800.00
2023-02-26T09:30:36.497Z,4340.00
2023-02-26T09:35:36.460Z,5688.00
2023-02-26T09:40:36.371Z,4768.00
2023-02-26T09:45:36.320Z,51520.00
2023-02-26T09:50:36.210Z,54176.00
2023-02-26T09:55:36.198Z,54688.00
2023-02-26T10:00:36.120Z,50048.00
2023-02-26T10:05:36.054Z,5864.00
2023-02-26T10:10:35.957Z,12032.00
2023-02-26T10:15:35.938Z,3120.00
2023-02-26T10:20:35.822Z,5696.00
2023-02-26T10:25:35.805Z,4104.00
2023-02-26T10:30:35.749Z,3436.00
2023-02-26T10:35:35.646Z,5092.00
2023-02-26T10:40:35.604Z,4092.00
2023-02-26T10:45:37.374Z,3052.00
2023-02-26T10:50:37.293Z,3236.00
2023-02-26T10:55:37.942Z,3524.00
2023-02-26T11:00:35.336Z,3092.00
2023-02-26T11:05:35.246Z,3092.00
2023-02-26T11:10:36.141Z,2960.00
2023-02-26T11:15:35.231Z,3724.00
2023-02-26T11:20:35.054Z,39968.00
2023-02-26T11:25:36.078Z,6712.00
2023-02-26T11:30:34.918Z,3552.00
2023-02-26T11:35:34.869Z,3360.00
2023-02-26T11:40:34.783Z,2604.00
2023-02-26T11:45:34.748Z,2508.00
2023-02-26T11:50:34.779Z,3244.00
2023-02-26T11:55:34.622Z,3628.00
2023-02-26T12:00:34.528Z,3116.00
2023-02-26T12:05:34.496Z,3536.00
2023-02-26T12:10:34.368Z,3584.00
2023-02-26T12:15:34.352Z,2712.00
2023-02-26T12:20:35.232Z,2460.00
2023-02-26T12:25:34.339Z,2328.00
2023-02-26T12:30:34.218Z,2644.00
2023-02-26T12:35:34.070Z,3348.00
2023-02-26T12:40:34.005Z,3808.00
2023-02-26T12:45:33.975Z,4580.00
2023-02-26T12:50:33.900Z,4628.00
2023-02-26T12:55:33.821Z,4712.00
2023-02-26T13:00:33.753Z,4664.00
2023-02-26T13:05:33.694Z,4352.00
2023-02-26T13:10:33.622Z,4100.00
2023-02-26T13:15:33.618Z,4428.00
2023-02-26T13:20:33.475Z,4512.00
2023-02-26T13:25:33.431Z,3632.00
2023-02-26T13:30:33.396Z,3500.00
2023-02-26T13:35:33.327Z,3804.00
2023-02-26T13:40:33.227Z,3420.00
2023-02-26T13:45:33.147Z,3348.00
2023-02-26T13:50:33.073Z,2768.00
2023-02-26T13:55:33.032Z,2680.00
2023-02-26T14:00:32.943Z,2668.00
2023-02-26T14:05:32.898Z,6612.00
2023-02-26T14:10:32.819Z,5120.00
2023-02-26T14:15:32.769Z,4896.00
2023-02-26T14:20:32.711Z,2116.00
2023-02-26T14:25:32.617Z,3488.00
2023-02-26T14:30:32.615Z,3536.00
2023-02-26T14:35:32.512Z,3608.00
2023-02-26T14:40:32.413Z,3700.00
2023-02-26T14:45:32.397Z,1952.00
2023-02-26T14:50:32.269Z,1996.00
2023-02-26T14:55:32.260Z,2068.00
2023-02-26T15:00:32.147Z,2800.00
2023-02-26T15:05:32.121Z,2544.00
2023-02-26T15:10:32.010Z,2200.00
2023-02-26T15:15:31.993Z,1588.00
2023-02-26T15:20:31.904Z,2232.00
2023-02-26T15:25:31.864Z,1868.00
2023-02-26T15:30:31.753Z,1456.00
2023-02-26T15:35:31.713Z,1228.00
2023-02-26T15:40:31.624Z,1180.00
2023-02-26T15:45:31.587Z,1580.00
2023-02-26T15:50:31.512Z,1616.00
2023-02-26T15:55:31.453Z,1560.00
2023-02-26T16:00:31.380Z,1280.00
2023-02-26T16:05:31.312Z,840.00
2023-02-26T16:10:31.275Z,768.00
2023-02-26T16:15:31.193Z,824.00
2023-02-26T16:20:31.138Z,680.00
2023-02-26T16:25:31.063Z,720.00
2023-02-26T16:30:30.978Z,604.00
2023-02-26T16:35:30.933Z,500.00
2023-02-26T16:40:30.840Z,384.00
2023-02-26T16:45:30.795Z,328.00
2023-02-26T16:50:30.758Z,268.00
2023-02-26T16:55:30.974Z,196.00
2023-02-26T17:00:30.616Z,140.00
2023-02-26T17:05:30.589Z,88.00
2023-02-26T17:10:30.523Z,48.00
2023-02-26T17:15:30.427Z,24.00
2023-02-26T17:20:30.337Z,12.00
2023-02-26T17:25:30.937Z,4.00
2023-02-26T17:30:30.268Z,4.00
2023-02-26T17:35:30.199Z,4.00
2023-02-26T17:40:30.154Z,0.00
2023-02-26T17:45:30.105Z,0.00
2023-02-26T17:50:29.906Z,0.00
2023-02-26T17:55:29.891Z,0.00
2023-02-26T18:00:29.833Z,0.00
2023-02-26T18:05:29.739Z,0.00
2023-02-26T18:10:29.694Z,0.00
2023-02-26T18:15:29.641Z,0.00
2023-02-26T18:20:29.902Z,0.00
2023-02-26T18:25:29.513Z,0.00
2023-02-26T18:30:29.562Z,0.00
2023-02-26T18:35:29.399Z,0.00
2023-02-26T18:40:29.455Z,0.00
2023-02-26T18:45:29.278Z,0.00
2023-02-26T18:50:29.179Z,0.00
2023-02-26T18:55:29.156Z,0.00
2023-02-26T19:00:29.757Z,0.00
2023-02-26T19:05:29.006Z,0.00
2023-02-26T19:10:28.965Z,0.00
2023-02-26T19:15:28.959Z,0.00
2023-02-26T19:20:28.926Z,0.00
2023-02-26T19:25:28.768Z,0.00
2023-02-26T19:30:28.744Z,0.00
2023-02-26T19:35:28.611Z,0.00
2023-02-26T19:40:28.570Z,0.00
2023-02-26T19:45:28.514Z,0.00
2023-02-26T19:50:28.443Z,0.00
2023-02-26T19:55:28.348Z,0.00
2023-02-26T20:00:28.344Z,0.00
2023-02-26T20:05:28.230Z,0.00
2023-02-26T20:10:28.234Z,0.00
2023-02-26T20:15:28.132Z,0.00
2023-02-26T20:20:28.123Z,0.00
2023-02-26T20:25:28.009Z,0.00
2023-02-26T20:30:27.938Z,0.00
2023-02-26T20:35:27.849Z,0.00
2023-02-26T20:40:27.776Z,0.00
2023-02-26T20:45:27.713Z,0.00
2023-02-26T20:50:27.665Z,0.00
2023-02-26T20:55:27.582Z,0.00
2023-02-26T21:00:27.645Z,0.00
2023-02-26T21:05:27.468Z,0.00
2023-02-26T21:10:27.408Z,0.00
2023-02-26T21:15:27.351Z,0.00
2023-02-26T21:20:27.290Z,0.00
2023-02-26T21:25:27.238Z,0.00
2023-02-26T21:30:27.220Z,0.00
2023-02-26T21:35:27.107Z,0.00
2023-02-26T21:40:27.050Z,0.00
2023-02-26T21:45:26.983Z,0.00
2023-02-26T21:50:26.957Z,0.00
2023-02-26T21:55:26.818Z,0.00
2023-02-26T22:00:26.756Z,0.00
2023-02-26T22:05:26.770Z,0.00
2023-02-26T22:10:26.660Z,0.00
2023-02-26T22:15:26.571Z,0.00
2023-02-26T22:20:26.511Z,0.00
2023-02-26T22:25:26.483Z,0.00
2023-02-26T22:30:26.421Z,0.00
2023-02-26T22:35:26.315Z,0.00
2023-02-26T22:40:26.265Z,0.00
2023-02-26T22:45:26.223Z,0.00
2023-02-26T22:50:26.117Z,0.00
2023-02-26T22:55:26.091Z,0.00
2023-02-26T23:00:26.013Z,0.00
2023-02-26T23:05:25.964Z,0.00
2023-02-26T23:10:25.942Z,0.00
2023-02-26T23:15:26.021Z,0.00
2023-02-26T23:20:25.764Z,0.00
2023-02-26T23:25:25.701Z,0.00
2023-02-26T23:30:25.628Z,0.00
2023-02-26T23:35:25.567Z,0.00
2023-02-26T23:40:26.173Z,0.00
2023-02-26T23:45:25.446Z,0.00
2023-02-26T23:50:25.376Z,0.00
2023-02-26T23:55:25.301Z,0.00
